createdAt,value
2019-02-27T00:00:20.040Z,69.33
2019-02-27T00:00:55.051Z,68.10
2019-02-27T00:01:26.614Z,58.97
2019-02-27T00:01:57.809Z,50.70
2019-02-27T00:02:29.110Z,45.53
2019-02-27T00:03:00.403Z,41.83
2019-02-27T00:03:31.547Z,43.00
2019-02-27T00:04:03.070Z,40.80
2019-02-27T00:04:35.663Z,44.83
2019-02-27T00:05:08.372Z,40.83
2019-02-27T00:05:41.813Z,41.50
2019-02-27T00:06:15.867Z,38.90
2019-02-27T00:06:47.917Z,38.87
2019-02-27T00:07:20.998Z,36.87
2019-02-27T00:07:54.852Z,34.63
2019-02-27T00:08:27.045Z,34.33
2019-02-27T00:09:00.576Z,33.63
2019-02-27T00:09:32.860Z,34.83
2019-02-27T00:10:06.755Z,39.57
2019-02-27T00:10:39.293Z,41.93
2019-02-27T00:11:12.369Z,47.03
2019-02-27T00:11:46.687Z,44.73
2019-02-27T00:12:19.344Z,51.27
2019-02-27T00:12:52.004Z,51.67
2019-02-27T00:13:24.966Z,48.90
2019-02-27T00:13:58.508Z,46.87
2019-02-27T00:14:31.248Z,50.03
2019-02-27T00:15:05.759Z,52.23
2019-02-27T00:15:37.935Z,53.63
2019-02-27T00:16:11.180Z,53.17
2019-02-27T00:16:44.605Z,53.23
2019-02-27T00:17:18.053Z,53.87
2019-02-27T00:17:51.474Z,53.20
2019-02-27T00:18:23.941Z,52.63
2019-02-27T00:18:58.567Z,52.30
2019-02-27T00:19:31.064Z,50.17
2019-02-27T00:20:04.097Z,54.03
2019-02-27T00:20:37.088Z,52.10
2019-02-27T00:21:11.005Z,50.83
2019-02-27T00:21:43.554Z,49.57
2019-02-27T00:22:17.612Z,50.03
2019-02-27T00:22:50.614Z,47.90
2019-02-27T00:23:23.828Z,48.47
2019-02-27T00:23:56.717Z,47.73
2019-02-27T00:24:29.885Z,46.70
2019-02-27T00:25:03.115Z,49.27
2019-02-27T00:25:35.941Z,49.33
2019-02-27T00:26:08.791Z,49.20
2019-02-27T00:26:42.463Z,50.17
2019-02-27T00:27:14.731Z,51.60
2019-02-27T00:27:48.744Z,51.00
2019-02-27T00:28:23.127Z,51.70
2019-02-27T00:28:55.942Z,51.33
2019-02-27T00:29:28.866Z,49.40
2019-02-27T00:29:59.454Z,48.40
2019-02-27T00:30:31.597Z,47.90
2019-02-27T00:31:02.847Z,48.93
2019-02-27T00:31:34.018Z,50.30
2019-02-27T00:32:05.189Z,49.17
2019-02-27T00:32:36.356Z,48.10
2019-02-27T00:33:07.524Z,48.73
2019-02-27T00:33:38.698Z,49.43
2019-02-27T00:34:09.886Z,50.77
2019-02-27T00:34:41.067Z,50.80
2019-02-27T00:35:12.293Z,49.57
2019-02-27T00:35:43.472Z,46.50
2019-02-27T00:36:14.652Z,44.80
2019-02-27T00:36:45.927Z,47.20
2019-02-27T00:37:19.025Z,45.83
2019-02-27T00:37:52.042Z,45.53
2019-02-27T00:38:25.169Z,44.40
2019-02-27T00:38:57.906Z,47.03
2019-02-27T00:39:31.305Z,51.10
2019-02-27T00:40:05.599Z,55.33
2019-02-27T00:40:39.389Z,51.37
2019-02-27T00:41:12.842Z,48.43
2019-02-27T00:41:46.065Z,49.00
2019-02-27T00:42:19.576Z,49.23
2019-02-27T00:42:54.070Z,49.57
2019-02-27T00:43:23.055Z,48.33
2019-02-27T00:43:54.288Z,45.50
2019-02-27T00:44:25.551Z,46.57
2019-02-27T00:44:56.790Z,39.23
2019-02-27T00:45:28.015Z,41.43
2019-02-27T00:45:59.251Z,40.07
2019-02-27T00:46:30.493Z,40.27
2019-02-27T00:47:01.705Z,38.23
2019-02-27T00:47:32.867Z,37.83
2019-02-27T00:48:04.126Z,38.77
2019-02-27T00:48:35.337Z,40.17
2019-02-27T00:49:06.562Z,39.93
2019-02-27T00:49:37.725Z,41.70
2019-02-27T00:50:08.940Z,40.90
2019-02-27T00:50:40.104Z,41.63
2019-02-27T00:51:11.992Z,39.33
2019-02-27T00:51:44.966Z,38.97
2019-02-27T00:52:18.268Z,38.17
2019-02-27T00:52:51.190Z,38.23
2019-02-27T00:53:24.522Z,39.60
2019-02-27T00:53:58.329Z,39.60
2019-02-27T00:54:31.452Z,39.47
2019-02-27T00:55:05.354Z,41.90
2019-02-27T00:55:39.334Z,40.13
2019-02-27T00:56:11.969Z,39.00
2019-02-27T00:56:45.013Z,38.57
2019-02-27T00:57:20.470Z,35.87
2019-02-27T00:57:53.900Z,35.20
2019-02-27T00:58:26.818Z,34.90
2019-02-27T00:58:59.965Z,35.93
2019-02-27T00:59:32.864Z,34.13
2019-02-27T01:00:13.561Z,33.03
2019-02-27T01:00:44.987Z,31.47
2019-02-27T01:01:17.268Z,33.13
2019-02-27T01:01:48.673Z,33.13
2019-02-27T01:02:20.903Z,31.43
2019-02-27T01:02:53.486Z,29.50
2019-02-27T01:03:26.264Z,30.90
2019-02-27T01:04:02.204Z,31.63
2019-02-27T01:04:34.946Z,30.90
2019-02-27T01:05:06.169Z,32.33
2019-02-27T01:05:41.210Z,32.23
2019-02-27T01:06:14.648Z,32.97
2019-02-27T01:06:47.600Z,33.93
2019-02-27T01:07:20.700Z,30.00
2019-02-27T01:07:53.994Z,30.40
2019-02-27T01:08:25.090Z,31.10
2019-02-27T01:08:57.672Z,32.87
2019-02-27T01:09:28.855Z,35.73
2019-02-27T01:10:00.018Z,36.60
2019-02-27T01:10:31.212Z,34.60
2019-02-27T01:11:02.389Z,38.57
2019-02-27T01:11:33.578Z,35.67
2019-02-27T01:12:04.856Z,37.93
2019-02-27T01:12:36.046Z,37.83
2019-02-27T01:13:07.218Z,36.13
2019-02-27T01:13:38.395Z,36.47
2019-02-27T01:14:09.586Z,36.53
2019-02-27T01:14:40.760Z,37.20
2019-02-27T01:15:12.848Z,36.17
2019-02-27T01:15:44.746Z,36.47
2019-02-27T01:16:17.341Z,38.13
2019-02-27T01:16:50.328Z,39.40
2019-02-27T01:17:23.860Z,39.17
2019-02-27T01:17:57.430Z,41.03
2019-02-27T01:18:30.792Z,37.10
2019-02-27T01:19:02.232Z,36.00
2019-02-27T01:19:38.496Z,37.40
2019-02-27T01:20:12.650Z,36.90
2019-02-27T01:20:46.415Z,38.40
2019-02-27T01:21:19.394Z,39.47
2019-02-27T01:21:49.951Z,39.37
2019-02-27T01:22:21.151Z,40.00
2019-02-27T01:22:52.293Z,42.90
2019-02-27T01:23:23.497Z,39.53
2019-02-27T01:23:54.654Z,37.47
2019-02-27T01:24:25.850Z,37.10
2019-02-27T01:24:57.005Z,36.17
2019-02-27T01:25:28.270Z,37.00
2019-02-27T01:25:59.418Z,36.80
2019-02-27T01:26:31.518Z,35.77
2019-02-27T01:27:04.687Z,37.83
2019-02-27T01:27:38.085Z,37.67
2019-02-27T01:28:11.092Z,35.67
2019-02-27T01:28:45.490Z,34.40
2019-02-27T01:29:15.719Z,35.00
2019-02-27T01:29:50.761Z,35.80
2019-02-27T01:30:23.879Z,39.23
2019-02-27T01:30:54.458Z,40.27
2019-02-27T01:31:25.622Z,40.87
2019-02-27T01:31:57.616Z,42.70
2019-02-27T01:32:31.164Z,41.37
2019-02-27T01:33:04.179Z,43.03
2019-02-27T01:33:38.153Z,40.33
2019-02-27T01:34:11.176Z,38.60
2019-02-27T01:34:44.177Z,37.10
2019-02-27T01:35:17.889Z,36.57
2019-02-27T01:35:51.377Z,33.53
2019-02-27T01:36:21.773Z,36.13
2019-02-27T01:36:57.602Z,36.60
2019-02-27T01:37:31.348Z,34.70
2019-02-27T01:38:05.029Z,35.93
2019-02-27T01:38:37.841Z,36.30
2019-02-27T01:39:08.933Z,37.50
2019-02-27T01:39:41.859Z,34.80
2019-02-27T01:40:17.196Z,34.63
2019-02-27T01:40:48.947Z,31.13
2019-02-27T01:41:24.440Z,32.13
2019-02-27T01:41:55.318Z,32.60
2019-02-27T01:42:26.380Z,32.27
2019-02-27T01:42:57.606Z,33.80
2019-02-27T01:43:28.777Z,35.53
2019-02-27T01:43:59.962Z,33.93
2019-02-27T01:44:31.247Z,36.37
2019-02-27T01:45:06.470Z,38.70
2019-02-27T01:45:37.671Z,39.10
2019-02-27T01:46:08.832Z,39.03
2019-02-27T01:46:40.020Z,40.40
2019-02-27T01:47:11.199Z,35.73
2019-02-27T01:47:42.372Z,37.50
2019-02-27T01:48:14.568Z,38.10
2019-02-27T01:48:45.736Z,35.73
2019-02-27T01:49:16.948Z,33.70
2019-02-27T01:49:49.121Z,33.33
2019-02-27T01:50:33.296Z,34.03
2019-02-27T01:51:04.472Z,32.27
2019-02-27T01:51:35.671Z,31.13
2019-02-27T01:52:06.846Z,32.83
2019-02-27T01:52:38.082Z,32.37
2019-02-27T01:53:09.241Z,32.67
2019-02-27T01:53:40.687Z,32.23
2019-02-27T01:54:15.044Z,31.13
2019-02-27T01:54:46.048Z,31.40
2019-02-27T01:55:21.818Z,33.27
2019-02-27T01:55:56.151Z,32.30
2019-02-27T01:56:28.903Z,32.23
2019-02-27T01:56:59.876Z,33.23
2019-02-27T01:57:31.135Z,33.60
2019-02-27T01:58:02.461Z,34.30
2019-02-27T01:58:33.661Z,35.80
2019-02-27T01:59:04.928Z,36.17
2019-02-27T01:59:36.084Z,36.43
2019-02-27T02:00:07.394Z,44.40
2019-02-27T02:00:39.630Z,46.20
2019-02-27T02:01:10.858Z,46.57
2019-02-27T02:01:42.140Z,46.17
2019-02-27T02:02:13.322Z,46.97
2019-02-27T02:02:44.474Z,46.03
2019-02-27T02:03:15.838Z,48.70
2019-02-27T02:03:48.038Z,54.27
2019-02-27T02:04:20.264Z,57.67
2019-02-27T02:04:53.732Z,52.93
2019-02-27T02:05:27.144Z,55.90
2019-02-27T02:05:59.344Z,56.77
2019-02-27T02:06:32.439Z,42.90
2019-02-27T02:07:06.649Z,37.13
2019-02-27T02:07:39.917Z,38.67
2019-02-27T02:08:13.609Z,31.70
2019-02-27T02:08:47.986Z,45.07
2019-02-27T02:09:32.876Z,51.70
2019-02-27T02:10:09.225Z,35.23
2019-02-27T02:10:40.387Z,43.07
2019-02-27T02:11:11.553Z,53.77
2019-02-27T02:11:42.720Z,36.07
2019-02-27T02:12:20.457Z,37.47
2019-02-27T02:13:03.056Z,27.30
2019-02-27T02:13:55.107Z,27.63
2019-02-27T02:14:46.628Z,32.17
2019-02-27T02:15:40.698Z,38.73
2019-02-27T02:16:26.377Z,29.60
2019-02-27T02:17:41.010Z,28.10
2019-02-27T02:18:32.203Z,25.97
2019-02-27T02:19:27.112Z,28.10
2019-02-27T02:20:27.046Z,29.53
2019-02-27T02:21:15.217Z,34.40
2019-02-27T02:22:06.080Z,24.50
2019-02-27T02:22:45.210Z,21.67
2019-02-27T02:23:33.894Z,22.23
2019-02-27T02:24:25.621Z,19.00
2019-02-27T02:25:10.976Z,20.53
2019-02-27T02:25:53.706Z,26.63
2019-02-27T02:26:52.937Z,23.40
2019-02-27T02:27:56.522Z,18.77
2019-02-27T02:28:48.849Z,21.93
2019-02-27T02:29:52.961Z,20.87
2019-02-27T02:31:05.254Z,24.03
2019-02-27T02:31:52.377Z,20.43
2019-02-27T02:33:02.345Z,18.70
2019-02-27T02:33:50.937Z,16.63
2019-02-27T02:34:42.446Z,17.70
2019-02-27T02:35:35.967Z,22.03
2019-02-27T02:36:36.910Z,26.17
2019-02-27T02:37:16.342Z,27.30
2019-02-27T02:38:32.556Z,27.57
2019-02-27T02:39:27.551Z,24.73
2019-02-27T02:40:22.146Z,23.10
2019-02-27T02:41:28.871Z,20.87
2019-02-27T02:42:14.482Z,19.77
2019-02-27T02:43:13.614Z,17.97
2019-02-27T02:44:29.645Z,18.77
2019-02-27T02:45:15.502Z,17.43
2019-02-27T02:46:10.253Z,16.07
2019-02-27T02:46:55.927Z,14.90
2019-02-27T02:47:55.425Z,16.20
2019-02-27T02:48:47.637Z,17.00
2019-02-27T02:49:42.470Z,17.50
2019-02-27T02:50:37.436Z,19.27
2019-02-27T02:51:29.988Z,19.20
2019-02-27T02:52:41.691Z,19.77
2019-02-27T02:53:30.814Z,23.57
2019-02-27T02:54:36.423Z,25.83
2019-02-27T02:55:35.664Z,23.47
2019-02-27T02:56:23.815Z,20.83
2019-02-27T02:57:19.487Z,21.80
2019-02-27T02:58:13.908Z,21.07
2019-02-27T02:59:26.773Z,22.27
2019-02-27T03:00:20.342Z,19.17
2019-02-27T03:01:03.076Z,19.27
2019-02-27T03:01:45.567Z,19.40
2019-02-27T03:02:42.843Z,19.17
2019-02-27T03:03:25.364Z,19.63
2019-02-27T03:04:14.301Z,21.47
2019-02-27T03:05:10.769Z,21.57
2019-02-27T03:06:00.074Z,21.37
2019-02-27T03:06:43.031Z,23.03
2019-02-27T03:07:46.580Z,23.67
2019-02-27T03:08:26.521Z,23.33
2019-02-27T03:09:18.213Z,22.53
2019-02-27T03:10:14.797Z,22.97
2019-02-27T03:11:21.927Z,23.77
2019-02-27T03:12:10.483Z,21.43
2019-02-27T03:12:56.479Z,21.97
2019-02-27T03:13:51.658Z,24.73
2019-02-27T03:14:46.186Z,23.00
2019-02-27T03:15:29.678Z,24.37
2019-02-27T03:16:09.483Z,20.50
2019-02-27T03:16:54.915Z,21.40
2019-02-27T03:18:15.171Z,24.70
2019-02-27T03:19:09.999Z,24.33
2019-02-27T03:20:18.215Z,27.87
2019-02-27T03:21:03.917Z,28.27
2019-02-27T03:21:43.529Z,20.10
2019-02-27T03:22:41.835Z,26.60
2019-02-27T03:23:34.027Z,25.67
2019-02-27T03:24:28.270Z,24.00
2019-02-27T03:25:40.118Z,22.77
2019-02-27T03:26:55.942Z,22.93
2019-02-27T03:27:38.111Z,23.63
2019-02-27T03:28:31.578Z,24.13
2019-02-27T03:29:24.812Z,24.53
2019-02-27T03:30:34.331Z,25.03
2019-02-27T03:31:57.590Z,25.83
2019-02-27T03:32:41.194Z,28.47
2019-02-27T03:33:24.457Z,27.17
2019-02-27T03:34:18.678Z,25.93
2019-02-27T03:35:29.256Z,24.10
2019-02-27T03:36:38.973Z,23.33
2019-02-27T03:37:21.594Z,24.10
2019-02-27T03:38:25.648Z,27.10
2019-02-27T03:39:10.610Z,23.67
2019-02-27T03:40:20.357Z,25.20
2019-02-27T03:41:12.227Z,25.60
2019-02-27T03:42:11.467Z,28.60
2019-02-27T03:43:10.419Z,27.90
2019-02-27T03:43:59.234Z,25.27
2019-02-27T03:44:45.114Z,24.13
2019-02-27T03:45:31.728Z,25.23
2019-02-27T03:46:26.475Z,24.63
2019-02-27T03:47:15.427Z,24.77
2019-02-27T03:48:06.072Z,24.13
2019-02-27T03:49:17.524Z,23.87
2019-02-27T03:50:15.768Z,21.47
2019-02-27T03:51:04.261Z,22.27
2019-02-27T03:52:00.623Z,23.90
2019-02-27T03:53:01.618Z,23.40
2019-02-27T03:54:05.388Z,24.67
2019-02-27T03:55:21.658Z,22.60
2019-02-27T03:56:43.505Z,20.53
2019-02-27T03:57:58.789Z,20.67
2019-02-27T03:58:44.628Z,23.10
2019-02-27T03:59:30.398Z,21.80
2019-02-27T04:00:22.128Z,21.37
2019-02-27T04:01:15.709Z,27.37
2019-02-27T04:02:20.073Z,29.63
2019-02-27T04:02:59.679Z,30.63
2019-02-27T04:03:55.266Z,35.33
2019-02-27T04:04:53.534Z,36.13
2019-02-27T04:06:04.609Z,45.70
2019-02-27T04:06:53.077Z,56.50
2019-02-27T04:07:54.669Z,61.00
2019-02-27T04:08:54.532Z,71.33
2019-02-27T04:09:25.730Z,81.57
2019-02-27T04:09:56.891Z,86.30
2019-02-27T04:10:31.245Z,93.53
2019-02-27T04:11:05.552Z,98.47
2019-02-27T04:11:41.288Z,100.90
2019-02-27T04:12:08.341Z,94.00
2019-02-27T04:12:39.514Z,91.23
2019-02-27T04:13:10.725Z,73.57
2019-02-27T04:13:41.963Z,65.17
2019-02-27T04:14:28.372Z,67.87
2019-02-27T04:14:59.568Z,49.67
2019-02-27T04:15:30.719Z,42.43
2019-02-27T04:16:01.931Z,37.37
2019-02-27T04:16:33.198Z,31.10
2019-02-27T04:17:07.018Z,30.67
2019-02-27T04:17:37.197Z,23.63
2019-02-27T04:18:08.114Z,21.10
2019-02-27T04:18:39.013Z,19.83
2019-02-27T04:19:10.203Z,20.47
2019-02-27T04:19:41.355Z,19.43
2019-02-27T04:20:15.519Z,18.20
2019-02-27T04:20:49.691Z,17.83
2019-02-27T04:21:25.005Z,15.40
2019-02-27T04:21:51.894Z,16.13
2019-02-27T04:22:23.510Z,15.37
2019-02-27T04:22:54.745Z,14.97
2019-02-27T04:23:25.935Z,15.57
2019-02-27T04:23:57.094Z,14.53
2019-02-27T04:24:28.277Z,15.27
2019-02-27T04:24:59.476Z,13.87
2019-02-27T04:25:31.539Z,13.87
2019-02-27T04:26:05.766Z,14.00
2019-02-27T04:26:41.540Z,13.33
2019-02-27T04:27:09.606Z,12.57
2019-02-27T04:27:40.804Z,12.73
2019-02-27T04:28:12.055Z,11.77
2019-02-27T04:28:43.273Z,12.47
2019-02-27T04:29:14.550Z,12.27
2019-02-27T04:29:45.848Z,12.20
2019-02-27T04:30:17.047Z,12.13
2019-02-27T04:30:51.047Z,11.40
2019-02-27T04:31:21.330Z,11.53
2019-02-27T04:31:52.503Z,11.93
2019-02-27T04:32:23.728Z,11.43
2019-02-27T04:32:54.915Z,11.87
2019-02-27T04:33:26.108Z,11.97
2019-02-27T04:34:00.405Z,11.87
2019-02-27T04:34:33.265Z,11.37
2019-02-27T04:35:06.817Z,12.57
2019-02-27T04:35:39.649Z,12.03
2019-02-27T04:36:12.839Z,13.80
2019-02-27T04:36:47.011Z,12.07
2019-02-27T04:37:17.754Z,13.20
2019-02-27T04:37:53.902Z,11.90
2019-02-27T04:38:25.002Z,12.87
2019-02-27T04:38:56.656Z,13.20
2019-02-27T04:39:27.847Z,13.87
2019-02-27T04:39:59.016Z,13.53
2019-02-27T04:40:30.209Z,13.63
2019-02-27T04:41:01.349Z,13.67
2019-02-27T04:41:32.610Z,13.43
2019-02-27T04:42:03.849Z,13.60
2019-02-27T04:42:35.043Z,13.47
2019-02-27T04:43:06.202Z,13.20
2019-02-27T04:43:37.400Z,13.23
2019-02-27T04:44:08.685Z,13.80
2019-02-27T04:44:39.900Z,13.37
2019-02-27T04:45:12.420Z,14.23
2019-02-27T04:45:46.783Z,13.93
2019-02-27T04:46:18.941Z,13.83
2019-02-27T04:46:54.801Z,13.10
2019-02-27T04:47:28.824Z,13.40
2019-02-27T04:47:56.498Z,13.77
2019-02-27T04:48:29.910Z,14.73
2019-02-27T04:49:04.021Z,14.20
2019-02-27T04:49:34.778Z,13.37
2019-02-27T04:50:10.906Z,14.83
2019-02-27T04:50:41.693Z,13.67
2019-02-27T04:51:16.918Z,13.97
2019-02-27T04:51:48.088Z,13.87
2019-02-27T04:52:21.882Z,14.33
2019-02-27T04:52:52.477Z,13.80
2019-02-27T04:53:23.649Z,13.93
2019-02-27T04:53:54.840Z,13.57
2019-02-27T04:54:26.033Z,14.13
2019-02-27T04:54:57.204Z,13.73
2019-02-27T04:55:28.395Z,13.47
2019-02-27T04:55:59.569Z,14.00
2019-02-27T04:56:30.745Z,13.63
2019-02-27T04:57:01.933Z,13.57
2019-02-27T04:57:33.641Z,14.13
2019-02-27T04:58:08.620Z,13.23
2019-02-27T04:58:42.748Z,12.90
2019-02-27T04:59:11.619Z,13.77
2019-02-27T04:59:42.799Z,13.43
2019-02-27T05:00:13.980Z,13.63
2019-02-27T05:00:45.264Z,14.17
2019-02-27T05:01:16.464Z,14.53
2019-02-27T05:01:47.862Z,14.30
2019-02-27T05:02:19.166Z,14.23
2019-02-27T05:02:53.294Z,14.37
2019-02-27T05:03:25.817Z,14.07
2019-02-27T05:04:01.199Z,15.53
2019-02-27T05:04:34.901Z,15.87
2019-02-27T05:05:06.175Z,14.77
2019-02-27T05:05:39.063Z,16.27
2019-02-27T05:06:12.063Z,14.93
2019-02-27T05:06:46.835Z,16.27
2019-02-27T05:07:20.066Z,15.27
2019-02-27T05:07:54.133Z,16.27
2019-02-27T05:08:26.905Z,15.90
2019-02-27T05:08:59.797Z,16.00
2019-02-27T05:09:31.334Z,16.67
2019-02-27T05:10:07.844Z,17.83
2019-02-27T05:10:40.529Z,16.60
2019-02-27T05:11:14.186Z,16.40
2019-02-27T05:11:48.258Z,17.97
2019-02-27T05:12:18.237Z,17.10
2019-02-27T05:12:49.394Z,17.57
2019-02-27T05:13:21.014Z,17.90
2019-02-27T05:13:54.263Z,18.67
2019-02-27T05:14:27.348Z,19.60
2019-02-27T05:15:00.813Z,19.63
2019-02-27T05:15:31.833Z,20.37
2019-02-27T05:16:02.980Z,19.53
2019-02-27T05:16:34.134Z,20.10
2019-02-27T05:17:05.305Z,20.53
2019-02-27T05:17:36.504Z,19.13
2019-02-27T05:18:07.664Z,18.40
2019-02-27T05:18:38.847Z,18.77
2019-02-27T05:19:10.047Z,19.90
2019-02-27T05:19:41.200Z,19.97
2019-02-27T05:20:12.702Z,20.50
2019-02-27T05:20:45.696Z,21.57
2019-02-27T05:21:19.233Z,23.37
2019-02-27T05:21:52.274Z,33.07
2019-02-27T05:22:26.577Z,39.47
2019-02-27T05:23:00.109Z,40.00
2019-02-27T05:23:30.899Z,32.50
2019-02-27T05:24:02.427Z,25.90
2019-02-27T05:24:33.655Z,26.13
2019-02-27T05:25:04.817Z,27.30
2019-02-27T05:25:36.021Z,27.00
2019-02-27T05:26:07.212Z,25.23
2019-02-27T05:26:38.372Z,24.67
2019-02-27T05:27:09.651Z,25.87
2019-02-27T05:27:40.906Z,24.30
2019-02-27T05:28:12.129Z,23.93
2019-02-27T05:28:43.363Z,23.37
2019-02-27T05:29:15.841Z,24.20
2019-02-27T05:29:47.157Z,23.67
2019-02-27T05:30:18.539Z,24.57
2019-02-27T05:30:49.757Z,24.03
2019-02-27T05:31:20.957Z,24.33
2019-02-27T05:31:53.162Z,24.27
2019-02-27T05:32:28.091Z,25.17
2019-02-27T05:33:01.766Z,24.17
2019-02-27T05:33:35.820Z,23.07
2019-02-27T05:34:04.444Z,24.60
2019-02-27T05:34:35.641Z,23.83
2019-02-27T05:35:06.904Z,23.83
2019-02-27T05:35:38.101Z,25.27
2019-02-27T05:36:09.381Z,24.50
2019-02-27T05:36:41.155Z,24.27
2019-02-27T05:37:12.422Z,26.07
2019-02-27T05:37:43.751Z,23.60
2019-02-27T05:38:16.830Z,22.20
2019-02-27T05:38:48.071Z,23.37
2019-02-27T05:39:19.287Z,22.63
2019-02-27T05:39:51.111Z,21.60
2019-02-27T05:40:23.137Z,21.50
2019-02-27T05:40:59.882Z,20.97
2019-02-27T05:41:33.011Z,20.07
2019-02-27T05:42:06.103Z,20.77
2019-02-27T05:42:38.608Z,21.77
2019-02-27T05:43:08.325Z,23.23
2019-02-27T05:43:39.509Z,22.87
2019-02-27T05:44:11.687Z,21.57
2019-02-27T05:44:42.873Z,23.83
2019-02-27T05:45:14.145Z,25.27
2019-02-27T05:45:45.617Z,38.93
2019-02-27T05:46:16.813Z,32.07
2019-02-27T05:46:47.985Z,35.53
2019-02-27T05:47:19.246Z,29.17
2019-02-27T05:47:50.386Z,35.20
2019-02-27T05:48:21.598Z,39.47
2019-02-27T05:48:53.397Z,70.13
2019-02-27T05:49:27.349Z,89.77
2019-02-27T05:50:00.503Z,30.03
2019-02-27T05:50:33.970Z,29.33
2019-02-27T05:51:04.961Z,20.77
2019-02-27T05:51:37.446Z,19.53
2019-02-27T05:52:08.589Z,20.00
2019-02-27T05:52:39.777Z,17.43
2019-02-27T05:53:10.933Z,17.50
2019-02-27T05:53:42.141Z,17.80
2019-02-27T05:54:13.271Z,17.73
2019-02-27T05:54:44.466Z,16.73
2019-02-27T05:55:15.837Z,16.10
2019-02-27T05:55:47.044Z,17.03
2019-02-27T05:56:18.201Z,18.30
2019-02-27T05:56:49.645Z,16.57
2019-02-27T05:57:23.312Z,18.37
2019-02-27T05:57:54.715Z,18.00
2019-02-27T05:58:25.935Z,18.90
2019-02-27T05:58:57.148Z,17.53
2019-02-27T05:59:29.428Z,17.87
2019-02-27T06:00:02.725Z,19.73
2019-02-27T06:00:34.613Z,19.97
2019-02-27T06:01:05.966Z,17.90
2019-02-27T06:01:38.750Z,18.30
2019-02-27T06:02:10.972Z,17.30
2019-02-27T06:02:45.052Z,18.60
2019-02-27T06:03:18.288Z,18.97
2019-02-27T06:03:52.136Z,19.07
2019-02-27T06:04:25.120Z,20.23
2019-02-27T06:04:59.209Z,22.17
2019-02-27T06:05:30.108Z,30.37
2019-02-27T06:06:01.311Z,40.43
2019-02-27T06:06:32.448Z,48.97
2019-02-27T06:07:03.652Z,61.10
2019-02-27T06:07:34.827Z,46.30
2019-02-27T06:08:06.049Z,46.70
2019-02-27T06:08:38.088Z,75.00
2019-02-27T06:09:10.336Z,75.57
2019-02-27T06:09:43.827Z,74.50
2019-02-27T06:10:19.759Z,42.40
2019-02-27T06:10:49.412Z,42.87
2019-02-27T06:11:20.611Z,40.43
2019-02-27T06:11:51.777Z,31.57
2019-02-27T06:12:23.019Z,24.93
2019-02-27T06:12:54.221Z,28.60
2019-02-27T06:13:25.449Z,42.17
2019-02-27T06:13:56.695Z,48.47
2019-02-27T06:14:27.927Z,57.87
2019-02-27T06:14:59.159Z,53.20
2019-02-27T06:15:30.401Z,40.93
2019-02-27T06:16:03.867Z,36.90
2019-02-27T06:16:37.078Z,37.73
2019-02-27T06:17:10.107Z,35.17
2019-02-27T06:17:43.532Z,28.13
2019-02-27T06:18:14.059Z,29.73
2019-02-27T06:18:45.212Z,28.87
2019-02-27T06:19:16.541Z,25.00
2019-02-27T06:19:47.676Z,22.30
2019-02-27T06:20:18.868Z,21.37
2019-02-27T06:20:50.022Z,17.67
2019-02-27T06:21:21.216Z,16.97
2019-02-27T06:21:56.070Z,20.40
2019-02-27T06:22:27.245Z,21.37
2019-02-27T06:22:58.681Z,23.03
2019-02-27T06:23:29.932Z,24.03
2019-02-27T06:24:01.192Z,23.13
2019-02-27T06:24:32.428Z,23.97
2019-02-27T06:25:11.679Z,21.80
2019-02-27T06:25:42.909Z,22.00
2019-02-27T06:26:14.130Z,22.13
2019-02-27T06:26:45.354Z,21.23
2019-02-27T06:27:16.557Z,21.00
2019-02-27T06:27:47.721Z,22.00
2019-02-27T06:28:19.436Z,23.13
2019-02-27T06:28:50.689Z,23.37
2019-02-27T06:29:23.975Z,23.77
2019-02-27T06:29:56.958Z,21.37
2019-02-27T06:30:30.601Z,20.90
2019-02-27T06:31:02.493Z,20.27
2019-02-27T06:31:37.424Z,19.80
2019-02-27T06:32:11.821Z,19.30
2019-02-27T06:32:40.783Z,17.47
2019-02-27T06:33:12.806Z,18.07
2019-02-27T06:33:45.790Z,15.93
2019-02-27T06:34:17.076Z,16.80
2019-02-27T06:34:48.236Z,17.77
2019-02-27T06:35:19.440Z,16.40
2019-02-27T06:35:50.573Z,15.77
2019-02-27T06:36:21.769Z,15.77
2019-02-27T06:36:52.924Z,14.70
2019-02-27T06:37:24.128Z,15.23
2019-02-27T06:37:55.293Z,15.27
2019-02-27T06:38:26.507Z,15.90
2019-02-27T06:39:00.164Z,15.93
2019-02-27T06:39:34.167Z,16.30
2019-02-27T06:40:08.222Z,16.63
2019-02-27T06:40:42.057Z,16.27
2019-02-27T06:41:15.362Z,15.67
2019-02-27T06:41:47.452Z,16.97
2019-02-27T06:42:19.007Z,16.73
2019-02-27T06:42:53.472Z,16.23
2019-02-27T06:43:27.184Z,16.13
2019-02-27T06:43:58.902Z,17.23
2019-02-27T06:44:29.742Z,17.53
2019-02-27T06:45:00.987Z,20.37
2019-02-27T06:45:32.217Z,20.73
2019-02-27T06:46:03.468Z,24.03
2019-02-27T06:46:34.791Z,26.10
2019-02-27T06:47:07.216Z,26.30
2019-02-27T06:47:38.488Z,29.10
2019-02-27T06:48:10.377Z,30.07
2019-02-27T06:48:43.603Z,29.93
2019-02-27T06:49:17.533Z,28.33
2019-02-27T06:49:49.065Z,29.33
2019-02-27T06:50:25.215Z,26.33
2019-02-27T06:50:53.966Z,25.20
2019-02-27T06:51:25.158Z,27.20
2019-02-27T06:51:56.299Z,29.33
2019-02-27T06:52:27.513Z,30.67
2019-02-27T06:52:58.668Z,29.07
2019-02-27T06:53:29.868Z,28.20
2019-02-27T06:54:01.010Z,28.03
2019-02-27T06:54:32.246Z,27.33
2019-02-27T06:55:07.100Z,27.30
2019-02-27T06:55:38.322Z,22.10
2019-02-27T06:56:09.494Z,22.57
2019-02-27T07:52:12.884Z,17.40
2019-02-27T07:52:44.091Z,18.33
2019-02-27T07:53:17.706Z,19.10
2019-02-27T07:53:48.400Z,20.20
2019-02-27T07:54:19.680Z,19.53
2019-02-27T07:54:50.933Z,20.80
2019-02-27T07:55:23.626Z,21.50
2019-02-27T07:55:55.219Z,21.37
2019-02-27T07:56:26.400Z,20.97
2019-02-27T07:56:57.564Z,21.33
2019-02-27T07:57:28.762Z,21.70
2019-02-27T07:58:00.055Z,21.00
2019-02-27T07:58:33.792Z,20.13
2019-02-27T07:59:04.305Z,20.90
2019-02-27T07:59:37.951Z,22.07
2019-02-27T08:00:18.068Z,21.03
2019-02-27T08:00:49.837Z,22.20
2019-02-27T08:01:23.631Z,22.77
2019-02-27T08:01:54.852Z,21.77
2019-02-27T08:02:26.045Z,21.57
2019-02-27T08:02:57.235Z,20.87
2019-02-27T08:03:29.429Z,21.30
2019-02-27T08:04:00.601Z,21.37
2019-02-27T08:04:31.875Z,20.20
2019-02-27T08:05:07.738Z,20.30
2019-02-27T08:05:38.942Z,19.83
2019-02-27T08:06:10.150Z,21.10
2019-02-27T08:06:41.571Z,20.20
2019-02-27T08:07:13.110Z,21.30
2019-02-27T08:07:48.624Z,21.90
2019-02-27T08:08:17.378Z,22.77
2019-02-27T08:08:48.566Z,22.30
2019-02-27T08:09:19.754Z,24.03
2019-02-27T08:09:50.931Z,23.53
2019-02-27T08:10:23.698Z,23.00
2019-02-27T08:10:54.870Z,21.93
2019-02-27T08:11:26.530Z,22.53
2019-02-27T08:11:57.741Z,23.07
2019-02-27T08:12:29.018Z,22.63
2019-02-27T08:13:00.148Z,23.10
2019-02-27T08:13:31.430Z,22.73
2019-02-27T08:14:03.350Z,23.07
2019-02-27T08:14:37.330Z,22.33
2019-02-27T08:15:14.924Z,22.33
2019-02-27T08:15:46.196Z,21.90
2019-02-27T08:16:17.359Z,22.70
2019-02-27T08:16:48.574Z,21.80
2019-02-27T08:17:19.737Z,23.07
2019-02-27T08:17:51.014Z,21.60
2019-02-27T08:18:29.728Z,22.07
2019-02-27T08:18:55.284Z,22.83
2019-02-27T08:19:26.451Z,20.50
2019-02-27T08:19:57.671Z,20.90
2019-02-27T08:20:28.811Z,21.10
2019-02-27T08:21:00.025Z,22.13
2019-02-27T08:21:31.189Z,23.47
2019-02-27T08:22:03.395Z,23.23
2019-02-27T08:22:34.665Z,20.70
2019-02-27T08:23:06.973Z,21.53
2019-02-27T08:23:38.214Z,21.20
2019-02-27T08:24:09.453Z,23.60
2019-02-27T08:24:41.028Z,24.73
2019-02-27T08:25:16.655Z,24.00
2019-02-27T08:25:47.948Z,25.00
2019-02-27T08:26:19.218Z,24.77
2019-02-27T08:26:50.506Z,24.97
2019-02-27T08:27:21.773Z,24.43
2019-02-27T08:27:54.236Z,24.40
2019-02-27T08:28:25.693Z,24.43
2019-02-27T08:28:56.952Z,25.70
2019-02-27T08:29:28.115Z,24.83
2019-02-27T08:29:59.952Z,25.23
2019-02-27T08:30:31.189Z,26.37
2019-02-27T08:31:02.457Z,26.10
2019-02-27T08:31:33.585Z,26.40
2019-02-27T08:32:05.546Z,26.97
2019-02-27T08:32:36.830Z,26.90
2019-02-27T08:33:08.456Z,24.93
2019-02-27T08:33:40.189Z,26.80
2019-02-27T08:34:11.420Z,25.60
2019-02-27T08:34:42.557Z,25.90
2019-02-27T08:35:13.759Z,25.97
2019-02-27T08:35:44.917Z,25.80
2019-02-27T08:36:16.105Z,25.47
2019-02-27T08:36:47.253Z,24.50
2019-02-27T08:37:20.245Z,24.47
2019-02-27T08:37:51.564Z,25.37
2019-02-27T08:38:23.618Z,25.23
2019-02-27T08:38:54.985Z,25.93
2019-02-27T08:39:26.234Z,27.23